createdAt,value
2017-07-28T00:02:07.407Z,17.87
2017-07-28T00:04:36.847Z,17.86
2017-07-28T00:07:05.935Z,17.92
2017-07-28T00:09:34.956Z,17.94
2017-07-28T00:12:03.997Z,17.96
2017-07-28T00:14:33.067Z,17.95
2017-07-28T00:17:02.216Z,17.95
2017-07-28T00:19:31.299Z,17.98
2017-07-28T00:22:00.352Z,18.01
2017-07-28T00:24:29.407Z,18.00
2017-07-28T00:26:58.666Z,17.95
2017-07-28T00:29:27.695Z,17.93
2017-07-28T00:31:56.783Z,17.95
2017-07-28T00:34:25.852Z,17.94
2017-07-28T00:36:54.916Z,17.93
2017-07-28T00:39:23.984Z,17.93
2017-07-28T00:41:53.023Z,17.94
2017-07-28T00:44:22.103Z,17.91
2017-07-28T00:46:51.147Z,17.90
2017-07-28T00:49:20.225Z,17.92
2017-07-28T00:51:49.293Z,17.92
2017-07-28T00:54:18.361Z,17.90
2017-07-28T00:56:47.423Z,17.87
2017-07-28T00:59:16.472Z,17.86
2017-07-28T01:01:45.543Z,17.81
2017-07-28T01:04:14.583Z,17.77
2017-07-28T01:06:43.646Z,17.78
2017-07-28T01:09:12.732Z,17.76
2017-07-28T01:11:41.825Z,17.77
2017-07-28T01:14:10.870Z,17.77
2017-07-28T01:16:39.966Z,17.76
2017-07-28T01:19:09.013Z,17.77
2017-07-28T01:21:38.284Z,17.77
2017-07-28T01:24:07.362Z,17.71
2017-07-28T01:26:36.408Z,17.69
2017-07-28T01:29:05.473Z,17.63
2017-07-28T01:31:34.512Z,17.55
2017-07-28T01:34:03.597Z,17.53
2017-07-28T01:36:32.643Z,17.49
2017-07-28T01:39:01.713Z,17.44
2017-07-28T01:41:30.791Z,17.38
2017-07-28T01:43:59.852Z,17.32
2017-07-28T01:46:28.904Z,17.30
2017-07-28T01:48:57.973Z,17.25
2017-07-28T01:51:27.013Z,17.22
2017-07-28T01:53:56.076Z,17.17
2017-07-28T01:56:25.127Z,17.14
2017-07-28T01:58:54.184Z,17.11
2017-07-28T02:01:23.247Z,17.08
2017-07-28T02:03:52.312Z,17.10
2017-07-28T02:06:21.377Z,17.06
2017-07-28T02:08:50.452Z,17.07
2017-07-28T02:11:19.521Z,17.01
2017-07-28T02:13:48.571Z,16.98
2017-07-28T02:16:17.640Z,16.93
2017-07-28T02:18:46.704Z,16.91
2017-07-28T02:21:15.781Z,16.86
2017-07-28T02:23:44.874Z,16.79
2017-07-28T02:26:13.913Z,16.75
2017-07-28T02:28:42.959Z,16.72
2017-07-28T02:31:12.060Z,16.70
2017-07-28T02:33:41.125Z,16.69
2017-07-28T02:36:10.179Z,16.71
2017-07-28T02:38:39.241Z,16.70
2017-07-28T02:41:08.280Z,16.68
2017-07-28T02:43:37.383Z,16.66
2017-07-28T02:46:06.424Z,16.59
2017-07-28T02:48:35.493Z,16.59
2017-07-28T02:51:04.591Z,16.59
2017-07-28T02:53:33.854Z,16.57
2017-07-28T02:56:02.947Z,16.51
2017-07-28T02:58:32.023Z,16.49
2017-07-28T03:01:01.077Z,16.40
2017-07-28T03:03:30.127Z,16.37
2017-07-28T03:05:59.203Z,16.33
2017-07-28T03:08:28.263Z,16.31
2017-07-28T03:10:57.320Z,16.30
2017-07-28T03:13:26.384Z,16.28
2017-07-28T03:15:55.443Z,16.31
2017-07-28T03:18:24.550Z,16.29
2017-07-28T03:20:53.564Z,16.30
2017-07-28T03:23:22.619Z,16.30
2017-07-28T03:25:51.683Z,16.28
2017-07-28T03:28:20.739Z,16.26
2017-07-28T03:30:49.784Z,16.25
2017-07-28T03:33:18.847Z,16.23
2017-07-28T03:35:47.895Z,16.21
2017-07-28T03:38:16.973Z,16.18
2017-07-28T03:40:45.995Z,16.18
2017-07-28T03:43:15.044Z,16.14
2017-07-28T03:45:44.120Z,16.12
2017-07-28T03:48:13.182Z,16.09
2017-07-28T03:50:42.225Z,16.07
2017-07-28T03:53:11.272Z,16.05
2017-07-28T03:55:40.319Z,15.98
2017-07-28T03:58:09.379Z,15.94
2017-07-28T04:00:38.445Z,15.89
2017-07-28T04:03:07.511Z,15.86
2017-07-28T04:05:36.549Z,15.85
2017-07-28T04:08:05.617Z,15.84
2017-07-28T04:10:34.667Z,15.85
2017-07-28T04:13:03.736Z,15.89
2017-07-28T04:15:32.780Z,15.92
2017-07-28T04:18:01.842Z,15.96
2017-07-28T04:20:30.892Z,15.93
2017-07-28T04:22:59.933Z,16.00
2017-07-28T04:25:28.993Z,16.00
2017-07-28T04:27:58.034Z,16.03
2017-07-28T04:30:27.321Z,16.07
2017-07-28T04:32:56.604Z,16.09
2017-07-28T04:35:25.896Z,16.08
2017-07-28T04:37:54.956Z,16.11
2017-07-28T04:40:24.007Z,16.13
2017-07-28T04:42:53.077Z,16.17
2017-07-28T04:45:22.131Z,16.17
2017-07-28T04:47:51.164Z,16.18
2017-07-28T04:50:20.249Z,16.23
2017-07-28T04:52:49.288Z,16.27
2017-07-28T04:55:18.390Z,16.32
2017-07-28T04:57:47.489Z,16.37
2017-07-28T05:00:16.584Z,16.41
2017-07-28T05:02:45.660Z,16.42
2017-07-28T05:05:14.730Z,16.42
2017-07-28T05:07:43.866Z,16.44
2017-07-28T05:10:12.918Z,16.50
2017-07-28T05:12:42.256Z,16.53
2017-07-28T05:15:11.391Z,16.58
2017-07-28T05:17:40.427Z,16.59
2017-07-28T05:20:09.520Z,16.58
2017-07-28T05:22:38.588Z,16.57
2017-07-28T05:25:07.656Z,16.63
2017-07-28T05:27:36.715Z,16.64
2017-07-28T05:30:05.811Z,16.71
2017-07-28T05:32:34.856Z,16.81
2017-07-28T05:35:03.898Z,16.85
2017-07-28T05:37:32.959Z,16.82
2017-07-28T05:40:02.017Z,16.81
2017-07-28T05:42:31.074Z,16.80
2017-07-28T05:45:00.136Z,16.83
2017-07-28T05:47:29.226Z,16.85
2017-07-28T05:49:58.253Z,16.82
2017-07-28T05:52:27.292Z,16.84
2017-07-28T05:54:56.347Z,16.83
2017-07-28T05:57:25.415Z,16.85
2017-07-28T05:59:54.470Z,16.89
2017-07-28T06:02:23.528Z,16.96
2017-07-28T06:04:52.589Z,16.95
2017-07-28T06:07:21.847Z,17.01
2017-07-28T06:09:50.905Z,17.02
2017-07-28T06:12:19.985Z,17.08
2017-07-28T06:14:49.067Z,17.07
2017-07-28T06:17:18.114Z,17.14
2017-07-28T06:19:47.162Z,17.19
2017-07-28T06:22:16.227Z,17.22
2017-07-28T06:24:45.287Z,17.24
2017-07-28T06:27:14.421Z,17.29
2017-07-28T06:29:43.726Z,17.29
2017-07-28T06:32:12.777Z,17.38
2017-07-28T06:34:41.865Z,17.40
2017-07-28T06:37:10.913Z,17.45
2017-07-28T06:39:39.953Z,17.46
2017-07-28T06:42:09.196Z,17.48
2017-07-28T06:44:38.236Z,17.52
2017-07-28T06:47:07.273Z,17.52
2017-07-28T06:49:36.352Z,17.54
2017-07-28T06:52:05.412Z,17.58
2017-07-28T06:54:34.471Z,17.63
2017-07-28T06:57:03.564Z,17.68
2017-07-28T06:59:32.619Z,17.77
2017-07-28T07:02:01.694Z,17.83
2017-07-28T07:04:30.733Z,17.81
2017-07-28T07:06:59.806Z,17.79
2017-07-28T07:09:28.859Z,17.74
2017-07-28T07:11:57.907Z,17.76
2017-07-28T07:14:26.980Z,17.79
2017-07-28T07:16:56.027Z,17.79
2017-07-28T07:19:25.079Z,17.83
2017-07-28T07:21:54.123Z,17.85
2017-07-28T07:24:23.416Z,17.94
2017-07-28T07:26:52.495Z,17.95
2017-07-28T07:29:21.554Z,18.03
2017-07-28T07:31:50.620Z,18.07
2017-07-28T07:34:19.710Z,18.11
2017-07-28T07:36:48.771Z,18.17
2017-07-28T07:39:17.856Z,18.23
2017-07-28T07:41:46.924Z,18.37
2017-07-28T07:44:16.006Z,18.54
2017-07-28T07:46:45.054Z,18.70
2017-07-28T07:49:14.131Z,18.87
2017-07-28T07:51:43.195Z,19.03
2017-07-28T07:54:12.264Z,19.16
2017-07-28T07:56:41.349Z,19.28
2017-07-28T07:59:10.388Z,19.33
2017-07-28T08:01:39.433Z,19.39
2017-07-28T08:04:08.507Z,19.42
2017-07-28T08:06:37.582Z,19.41
2017-07-28T08:09:06.655Z,19.36
2017-07-28T08:11:35.717Z,19.38
2017-07-28T08:14:04.788Z,19.42
2017-07-28T08:16:33.875Z,19.53
2017-07-28T08:19:02.916Z,19.61
2017-07-28T08:21:31.988Z,19.66
2017-07-28T08:24:01.063Z,19.63
2017-07-28T08:26:30.128Z,19.69
2017-07-28T08:28:59.193Z,19.76
2017-07-28T08:31:28.236Z,19.88
2017-07-28T08:33:57.311Z,19.88
2017-07-28T08:36:26.361Z,19.90
2017-07-28T08:38:55.447Z,19.97
2017-07-28T08:41:24.513Z,19.97
2017-07-28T08:43:53.567Z,19.96
2017-07-28T08:46:22.627Z,20.04
2017-07-28T08:48:51.668Z,20.07
2017-07-28T08:51:20.711Z,20.09
2017-07-28T08:53:49.858Z,20.13
2017-07-28T08:56:18.875Z,20.25
2017-07-28T08:58:47.948Z,20.36
2017-07-28T09:01:17.246Z,20.50
2017-07-28T09:03:46.284Z,20.65
2017-07-28T09:06:15.358Z,20.68
2017-07-28T09:08:44.424Z,20.85
2017-07-28T09:11:13.631Z,20.88
2017-07-28T09:13:42.714Z,20.85
2017-07-28T09:16:11.777Z,20.75
2017-07-28T09:18:40.825Z,20.62
2017-07-28T09:21:09.947Z,20.55
2017-07-28T09:23:39.001Z,20.41
2017-07-28T09:26:08.115Z,20.37
2017-07-28T09:28:37.194Z,20.37
2017-07-28T09:31:06.271Z,20.40
2017-07-28T09:33:35.312Z,20.48
2017-07-28T09:36:04.379Z,20.66
2017-07-28T09:38:33.472Z,20.80
2017-07-28T09:41:02.510Z,20.94
2017-07-28T09:43:31.559Z,20.99
2017-07-28T09:46:00.628Z,20.93
2017-07-28T09:48:29.675Z,20.86
2017-07-28T09:50:58.738Z,20.81
2017-07-28T09:53:27.778Z,20.70
2017-07-28T09:55:56.841Z,20.63
2017-07-28T09:58:25.876Z,20.52
2017-07-28T10:00:54.952Z,20.54
2017-07-28T10:03:24.027Z,20.81
2017-07-28T10:05:53.305Z,21.00
2017-07-28T10:08:22.368Z,20.98
2017-07-28T10:10:51.422Z,20.89
2017-07-28T10:13:20.492Z,20.89
2017-07-28T10:15:49.542Z,21.08
2017-07-28T10:18:18.631Z,21.38
2017-07-28T10:20:47.663Z,21.68
2017-07-28T10:23:16.783Z,21.78
2017-07-28T10:25:45.831Z,21.81
2017-07-28T10:28:14.909Z,21.74
2017-07-28T10:30:43.993Z,21.63
2017-07-28T10:33:13.092Z,21.66
2017-07-28T10:35:42.133Z,21.75
2017-07-28T10:38:11.192Z,21.90
2017-07-28T10:40:40.255Z,22.10
2017-07-28T10:43:09.329Z,22.15
2017-07-28T10:45:38.376Z,22.18
2017-07-28T10:48:07.447Z,22.01
2017-07-28T10:50:36.515Z,21.94
2017-07-28T10:53:05.548Z,21.97
2017-07-28T10:55:34.627Z,21.98
2017-07-28T10:58:03.732Z,22.09
2017-07-28T11:00:32.760Z,22.27
2017-07-28T11:03:01.817Z,22.44
2017-07-28T11:05:30.880Z,22.67
2017-07-28T11:07:59.932Z,22.81
2017-07-28T11:10:28.983Z,22.92
2017-07-28T11:12:58.041Z,23.02
2017-07-28T11:15:27.108Z,23.19
2017-07-28T11:17:56.936Z,23.18
2017-07-28T11:20:26.006Z,23.06
2017-07-28T11:22:55.040Z,22.87
2017-07-28T11:25:24.100Z,22.80
2017-07-28T11:27:53.163Z,22.64
2017-07-28T11:30:22.234Z,22.51
2017-07-28T11:32:51.266Z,22.31
2017-07-28T11:35:20.528Z,22.25
2017-07-28T11:37:49.600Z,22.15
2017-07-28T11:40:18.692Z,22.09
2017-07-28T11:42:47.756Z,21.94
2017-07-28T11:45:16.792Z,21.86
2017-07-28T11:47:46.181Z,21.82
2017-07-28T11:50:15.261Z,21.68
2017-07-28T11:52:44.325Z,21.63
2017-07-28T11:55:13.414Z,21.65
2017-07-28T11:57:42.458Z,21.77
2017-07-28T12:00:11.584Z,21.80
2017-07-28T12:02:40.674Z,21.79
2017-07-28T12:05:09.731Z,21.77
2017-07-28T12:07:38.848Z,21.69
2017-07-28T12:10:08.722Z,21.56
2017-07-28T12:12:37.812Z,21.52
2017-07-28T12:15:06.897Z,21.47
2017-07-28T12:17:35.932Z,21.38
2017-07-28T12:20:05.776Z,21.32
2017-07-28T12:22:34.826Z,21.24
2017-07-28T12:25:03.975Z,21.25
2017-07-28T12:27:33.023Z,21.39
2017-07-28T12:30:03.049Z,21.55
2017-07-28T12:32:32.111Z,21.76
2017-07-28T12:35:01.194Z,21.99
2017-07-28T12:37:30.244Z,22.10
2017-07-28T12:40:00.099Z,22.13
2017-07-28T12:42:29.172Z,22.31
2017-07-28T12:44:58.243Z,22.49
2017-07-28T12:47:28.104Z,22.61
2017-07-28T12:49:57.164Z,22.66
2017-07-28T12:52:26.969Z,22.73
2017-07-28T12:54:56.791Z,22.75
2017-07-28T12:57:25.875Z,22.79
2017-07-28T12:59:55.705Z,22.80
2017-07-28T13:02:24.761Z,22.85
2017-07-28T13:04:53.829Z,22.97
2017-07-28T13:07:22.900Z,23.18
2017-07-28T13:09:52.825Z,23.30
2017-07-28T13:12:21.879Z,23.37
2017-07-28T13:14:51.697Z,23.31
2017-07-28T13:17:21.558Z,23.17
2017-07-28T13:19:50.590Z,22.99
2017-07-28T13:22:19.676Z,22.81
2017-07-28T13:24:48.764Z,22.70
2017-07-28T13:27:17.805Z,22.59
2017-07-28T13:29:46.877Z,22.40
2017-07-28T13:32:16.713Z,22.27
2017-07-28T13:34:45.799Z,22.14
2017-07-28T13:37:15.645Z,22.03
2017-07-28T13:39:44.707Z,21.96
2017-07-28T13:42:14.656Z,22.00
2017-07-28T13:44:43.753Z,22.06
2017-07-28T13:47:12.783Z,22.11
2017-07-28T13:49:43.074Z,22.17
2017-07-28T13:52:12.125Z,22.19
2017-07-28T13:54:41.953Z,22.13
2017-07-28T13:57:11.025Z,22.07
2017-07-28T13:59:40.085Z,21.97
2017-07-28T14:02:09.178Z,21.88
2017-07-28T14:04:38.239Z,21.84
2017-07-28T14:07:07.583Z,21.77
2017-07-28T14:09:36.652Z,21.74
2017-07-28T14:12:05.740Z,21.70
2017-07-28T14:14:34.802Z,21.76
2017-07-28T14:17:03.880Z,21.79
2017-07-28T14:19:32.952Z,21.81
2017-07-28T14:22:02.008Z,21.87
2017-07-28T14:24:31.067Z,21.96
2017-07-28T14:27:00.220Z,22.02
2017-07-28T14:29:29.283Z,22.07
2017-07-28T14:31:59.126Z,22.18
2017-07-28T14:34:28.179Z,22.17
2017-07-28T14:36:57.983Z,22.14
2017-07-28T14:39:27.060Z,22.12
2017-07-28T14:41:56.140Z,22.17
2017-07-28T14:44:25.184Z,22.17
2017-07-28T14:46:55.056Z,22.09
2017-07-28T14:49:24.092Z,22.02
2017-07-28T14:51:53.927Z,22.01
2017-07-28T14:54:22.984Z,22.00
2017-07-28T14:56:52.052Z,21.98
2017-07-28T14:59:21.113Z,22.07
2017-07-28T15:01:50.191Z,22.14
2017-07-28T15:04:19.999Z,22.11
2017-07-28T15:06:49.948Z,22.14
2017-07-28T15:09:19.023Z,22.19
2017-07-28T15:11:48.930Z,22.32
2017-07-28T15:14:18.757Z,22.40
2017-07-28T15:16:47.815Z,22.41
2017-07-28T15:19:16.876Z,22.42
2017-07-28T15:21:45.939Z,22.43
2017-07-28T15:24:15.070Z,22.47
2017-07-28T15:26:44.560Z,22.44
2017-07-28T15:29:13.625Z,22.47
2017-07-28T15:31:44.028Z,22.49
2017-07-28T15:34:13.892Z,22.53
2017-07-28T15:36:43.044Z,22.50
2017-07-28T15:39:12.918Z,22.49
2017-07-28T15:41:41.991Z,22.51
2017-07-28T15:44:11.068Z,22.60
2017-07-28T15:46:40.911Z,22.60
2017-07-28T15:49:09.968Z,22.62
2017-07-28T15:51:39.779Z,22.48
2017-07-28T15:54:09.856Z,22.50
2017-07-28T15:56:38.894Z,22.52
2017-07-28T15:59:08.752Z,22.46
2017-07-28T16:01:37.823Z,22.50
2017-07-28T16:04:06.882Z,22.53
2017-07-28T16:06:36.706Z,22.51
2017-07-28T16:09:06.175Z,22.50
2017-07-28T16:11:35.231Z,22.48
2017-07-28T16:14:04.273Z,22.53
2017-07-28T16:16:33.322Z,22.54
2017-07-28T16:19:02.394Z,22.56
2017-07-28T16:21:32.223Z,22.55
2017-07-28T16:24:01.296Z,22.53
2017-07-28T16:26:31.116Z,22.52
2017-07-28T16:29:00.955Z,22.53
2017-07-28T16:31:30.006Z,22.54
2017-07-28T16:33:59.833Z,22.55
2017-07-28T16:36:29.670Z,22.54
2017-07-28T16:38:58.742Z,22.56
2017-07-28T16:41:27.854Z,22.57
2017-07-28T16:43:56.925Z,22.55
2017-07-28T16:46:25.954Z,22.55
2017-07-28T16:48:55.021Z,22.53
2017-07-28T16:51:24.832Z,22.53
2017-07-28T16:53:54.685Z,22.49
2017-07-28T16:56:23.758Z,22.46
2017-07-28T16:58:53.594Z,22.44
2017-07-28T17:01:22.649Z,22.42
2017-07-28T17:03:52.469Z,22.41
2017-07-28T17:06:21.533Z,22.44
2017-07-28T17:08:50.586Z,22.46
2017-07-28T17:11:19.640Z,22.48
2017-07-28T17:13:49.496Z,22.43
2017-07-28T17:16:18.551Z,22.40
2017-07-28T17:18:48.371Z,22.39
2017-07-28T17:21:17.463Z,22.38
2017-07-28T17:23:47.297Z,22.41
2017-07-28T17:26:16.343Z,22.35
2017-07-28T17:28:45.396Z,22.32
2017-07-28T17:31:14.505Z,22.27
2017-07-28T17:33:43.528Z,22.10
2017-07-28T17:36:12.644Z,21.92
2017-07-28T17:38:41.673Z,21.79
2017-07-28T17:41:10.727Z,21.76
2017-07-28T17:43:40.555Z,21.71
2017-07-28T17:46:10.139Z,21.69
2017-07-28T17:48:39.209Z,21.74
2017-07-28T17:51:08.295Z,21.79
2017-07-28T17:53:37.347Z,21.83
2017-07-28T17:56:07.174Z,21.85
2017-07-28T17:58:36.523Z,21.82
2017-07-28T18:01:05.619Z,21.82
2017-07-28T18:03:34.695Z,21.87
2017-07-28T18:06:03.755Z,21.91
2017-07-28T18:08:32.826Z,21.88
2017-07-28T18:11:01.901Z,21.79
2017-07-28T18:13:31.995Z,21.83
2017-07-28T18:16:01.044Z,21.83
2017-07-28T18:18:30.869Z,21.86
2017-07-28T18:20:59.942Z,21.87
2017-07-28T18:23:29.013Z,21.89
2017-07-28T18:25:58.071Z,21.91
2017-07-28T18:28:27.143Z,21.88
2017-07-28T18:30:56.196Z,21.89
2017-07-28T18:33:25.239Z,21.88
2017-07-28T18:35:54.327Z,21.88
2017-07-28T18:38:24.155Z,21.83
2017-07-28T18:40:53.202Z,21.77
2017-07-28T18:43:22.285Z,21.67
2017-07-28T18:45:51.360Z,21.64
2017-07-28T18:48:20.425Z,21.61
2017-07-28T18:50:49.489Z,21.58
2017-07-28T18:53:18.547Z,21.55
2017-07-28T18:55:47.628Z,21.53
2017-07-28T18:58:16.709Z,21.47
2017-07-28T19:00:45.779Z,21.47
2017-07-28T19:03:15.612Z,21.44
2017-07-28T19:05:44.703Z,21.39
2017-07-28T19:08:14.626Z,21.40
2017-07-28T19:10:43.715Z,21.36
2017-07-28T19:13:12.773Z,21.34
2017-07-28T19:15:41.863Z,21.35
2017-07-28T19:18:10.943Z,21.31
2017-07-28T19:20:40.004Z,21.28
2017-07-28T19:23:09.114Z,21.27
2017-07-28T19:25:38.149Z,21.25
2017-07-28T19:28:07.277Z,21.22
2017-07-28T19:30:36.352Z,21.17
2017-07-28T19:33:05.401Z,21.16
2017-07-28T19:35:34.471Z,21.14
2017-07-28T19:38:03.526Z,21.13
2017-07-28T19:40:32.571Z,21.08
2017-07-28T19:43:01.630Z,21.04
2017-07-28T19:45:30.696Z,20.98
2017-07-28T19:48:00.530Z,20.92
2017-07-28T19:50:29.592Z,20.87
2017-07-28T19:52:58.674Z,20.86
2017-07-28T19:55:27.718Z,20.85
2017-07-28T19:57:56.789Z,20.84
2017-07-28T20:00:25.844Z,20.87
2017-07-28T20:02:54.915Z,20.86
2017-07-28T20:05:23.980Z,20.86
2017-07-28T20:07:53.036Z,20.86
2017-07-28T20:10:22.084Z,20.87
2017-07-28T20:12:51.139Z,20.85
2017-07-28T20:15:20.207Z,20.85
2017-07-28T20:17:49.284Z,20.82
2017-07-28T20:20:18.379Z,20.82
2017-07-28T20:22:47.432Z,20.82
2017-07-28T20:25:16.556Z,20.82
2017-07-28T20:27:45.615Z,20.79
2017-07-28T20:30:14.684Z,20.78
2017-07-28T20:32:43.720Z,20.79
2017-07-28T20:35:12.779Z,20.77
2017-07-28T20:37:41.857Z,20.73
2017-07-28T20:40:10.923Z,20.65
2017-07-28T20:42:39.986Z,20.56
2017-07-28T20:45:09.166Z,20.49
2017-07-28T20:47:38.243Z,20.45
2017-07-28T20:50:07.324Z,20.38
2017-07-28T20:52:36.394Z,20.34
2017-07-28T20:55:05.481Z,20.25
2017-07-28T20:57:34.544Z,20.23
2017-07-28T21:00:03.604Z,20.17
2017-07-28T21:02:32.645Z,20.12
2017-07-28T21:05:01.716Z,20.07
2017-07-28T21:07:30.760Z,20.02
2017-07-28T21:09:59.853Z,19.86
2017-07-28T21:12:28.929Z,19.83
2017-07-28T21:14:59.816Z,19.71
2017-07-28T21:17:28.892Z,19.55
2017-07-28T21:19:57.932Z,19.53
2017-07-28T21:22:26.988Z,19.38
2017-07-28T21:24:56.058Z,19.36
2017-07-28T21:27:25.138Z,19.35
2017-07-28T21:29:54.189Z,19.29
2017-07-28T21:32:23.241Z,19.28
2017-07-28T21:34:52.300Z,19.23
2017-07-28T21:37:21.381Z,19.17
2017-07-28T21:39:50.435Z,19.14
2017-07-28T21:42:19.464Z,19.10
2017-07-28T21:44:48.536Z,19.12
2017-07-28T21:47:17.605Z,19.12
2017-07-28T21:49:46.663Z,19.08
2017-07-28T21:52:15.917Z,19.03
2017-07-28T21:54:44.973Z,19.01
2017-07-28T21:57:14.097Z,19.03
2017-07-28T21:59:43.162Z,18.99
2017-07-28T22:02:12.246Z,19.00
2017-07-28T22:04:41.324Z,19.01
2017-07-28T22:07:10.430Z,19.02
2017-07-28T22:09:39.484Z,19.02
2017-07-28T22:12:08.551Z,19.02
2017-07-28T22:14:37.624Z,18.97
2017-07-28T22:17:06.688Z,18.88
2017-07-28T22:19:35.781Z,18.84
2017-07-28T22:22:04.894Z,18.77
2017-07-28T22:24:33.969Z,18.69
2017-07-28T22:27:03.036Z,18.62
2017-07-28T22:29:32.112Z,18.58
2017-07-28T22:32:01.184Z,18.60
2017-07-28T22:34:30.464Z,18.57
2017-07-28T22:36:59.534Z,18.52
2017-07-28T22:39:28.595Z,18.48
2017-07-28T22:41:57.669Z,18.45
2017-07-28T22:44:26.720Z,18.45
2017-07-28T22:46:55.798Z,18.44
2017-07-28T22:49:25.097Z,18.42
2017-07-28T22:51:54.140Z,18.40
2017-07-28T22:54:23.244Z,18.41
2017-07-28T22:56:52.284Z,18.38
2017-07-28T22:59:21.331Z,18.37
2017-07-28T23:01:50.617Z,18.38
2017-07-28T23:04:19.673Z,18.38
2017-07-28T23:06:48.745Z,18.32
2017-07-28T23:09:17.813Z,18.32
2017-07-28T23:11:46.902Z,18.30
2017-07-28T23:14:15.920Z,18.29
2017-07-28T23:16:44.991Z,18.33
2017-07-28T23:19:14.068Z,18.33
2017-07-28T23:21:43.122Z,18.37
2017-07-28T23:24:12.183Z,18.39
2017-07-28T23:26:41.269Z,18.39
2017-07-28T23:29:10.307Z,18.36
2017-07-28T23:31:39.371Z,18.36
2017-07-28T23:34:08.456Z,18.32
2017-07-28T23:36:37.532Z,18.32
2017-07-28T23:39:06.602Z,18.26
2017-07-28T23:41:35.703Z,18.23
2017-07-28T23:44:04.768Z,18.23
2017-07-28T23:46:33.971Z,18.19
2017-07-28T23:49:03.045Z,18.17
2017-07-28T23:51:32.105Z,18.17
2017-07-28T23:54:01.174Z,18.14
2017-07-28T23:56:30.227Z,18.10
2017-07-28T23:58:59.268Z,18.13
